Time;durP1;ratioP1;P1;durP2;ratioP2;P2;SDS_P1;SDS_P2;PMS_P1;PMS_P2;Temp;Humidity;BMP_temperature;BMP_pressure;BME280_temperature;BME280_humidity;BME280_pressure;Samples;Min_cycle;Max_cycle;Signal;HPM_P1;HPM_P2
2022/03/22 00:00:35;;;;;;;32.42;23.90;;;6.90;99.90;;;;;;5051056;28;20080;-73
2022/03/22 00:03:01;;;;;;;34.30;23.38;;;6.80;99.90;;;;;;5017560;28;20099;-73
2022/03/22 00:05:27;;;;;;;34.00;24.38;;;6.80;99.90;;;;;;5015741;28;20096;-73
2022/03/22 00:07:52;;;;;;;34.97;25.15;;;6.80;99.90;;;;;;4998333;28;20418;-74
2022/03/22 00:10:19;;;;;;;33.22;22.63;;;6.70;99.90;;;;;;5034405;28;20091;-74
2022/03/22 00:12:45;;;;;;;27.63;20.05;;;6.70;99.90;;;;;;5017402;28;20045;-74
2022/03/22 00:15:11;;;;;;;24.85;18.55;;;6.70;99.90;;;;;;5033617;28;20041;-74
2022/03/22 00:17:37;;;;;;;32.80;22.92;;;6.70;99.90;;;;;;5033771;28;20449;-74
2022/03/22 00:20:10;;;;;;;35.10;24.55;;;6.60;99.90;;;;;;5034175;28;20048;-73
2022/03/22 00:22:37;;;;;;;33.58;24.48;;;6.50;99.90;;;;;;5016598;28;20049;-74
2022/03/22 00:25:04;;;;;;;33.33;24.55;;;6.50;99.90;;;;;;5050954;28;20046;-74
2022/03/22 00:27:50;;;;;;;32.55;23.65;;;6.60;99.90;;;;;;5049027;28;20056;-73
2022/03/22 00:30:17;;;;;;;36.28;25.25;;;6.50;99.90;;;;;;5030937;28;20041;-73
2022/03/22 00:32:42;;;;;;;35.92;26.13;;;6.50;99.90;;;;;;5034106;28;20041;-74
2022/03/22 00:35:08;;;;;;;36.92;25.75;;;6.40;99.90;;;;;;5017924;28;20056;-74
2022/03/22 00:37:37;;;;;;;34.10;25.00;;;6.40;99.90;;;;;;5032763;28;20099;-74
2022/03/22 00:40:07;;;;;;;33.70;24.98;;;6.40;99.90;;;;;;5050690;28;20504;-74
2022/03/22 00:42:32;;;;;;;36.47;25.17;;;6.30;99.90;;;;;;5049440;28;20086;-74
2022/03/22 00:44:58;;;;;;;30.85;23.52;;;6.30;99.90;;;;;;5029310;28;20084;-74
2022/03/22 00:47:24;;;;;;;30.80;23.38;;;6.40;99.90;;;;;;5032919;28;20490;-73
2022/03/22 00:49:49;;;;;;;33.92;24.17;;;6.30;99.90;;;;;;5033954;28;20441;-73
2022/03/22 00:52:15;;;;;;;34.17;24.95;;;6.30;99.90;;;;;;5033685;28;20470;-73
2022/03/22 00:54:40;;;;;;;31.77;24.15;;;6.30;99.90;;;;;;5015678;28;20049;-74
2022/03/22 00:57:06;;;;;;;32.28;23.30;;;6.30;99.90;;;;;;5033810;28;20128;-73
2022/03/22 01:02:15;;;;;;;30.52;22.02;;;6.30;99.90;;;;;;5028915;28;20081;-74
2022/03/22 01:04:43;;;;;;;33.47;23.98;;;6.30;99.90;;;;;;5026546;28;20069;-73
2022/03/22 01:07:08;;;;;;;33.72;23.40;;;6.20;99.90;;;;;;5033629;28;20488;-74
2022/03/22 01:09:34;;;;;;;32.55;23.55;;;6.20;99.90;;;;;;5030429;28;20060;-74
2022/03/22 01:11:59;;;;;;;31.65;23.42;;;6.10;99.90;;;;;;5033391;28;20413;-74
2022/03/22 01:14:28;;;;;;;33.55;24.65;;;6.10;99.90;;;;;;5016455;28;20565;-75
2022/03/22 01:16:54;;;;;;;33.83;25.08;;;6.00;99.90;;;;;;5032735;28;20083;-73
2022/03/22 01:19:21;;;;;;;33.25;24.85;;;6.00;99.90;;;;;;5049110;28;20051;-74
2022/03/22 01:21:47;;;;;;;32.05;23.45;;;6.00;99.90;;;;;;5016767;28;20059;-74
2022/03/22 01:24:13;;;;;;;34.40;24.02;;;6.00;99.90;;;;;;5031388;28;20041;-74
2022/03/22 01:26:40;;;;;;;34.83;24.73;;;6.00;99.90;;;;;;5033466;28;20048;-74
2022/03/22 01:29:06;;;;;;;34.53;25.65;;;5.90;99.90;;;;;;5032765;28;20092;-74
2022/03/22 01:31:31;;;;;;;38.38;28.35;;;5.90;99.90;;;;;;5016660;28;20525;-74
2022/03/22 01:33:57;;;;;;;33.85;24.23;;;5.80;99.90;;;;;;5031081;28;20037;-74
2022/03/22 01:36:22;;;;;;;30.77;23.35;;;5.70;99.90;;;;;;5015261;28;20509;-74
2022/03/22 01:38:48;;;;;;;32.85;24.92;;;5.70;99.90;;;;;;5031945;28;20398;-74
2022/03/22 01:41:13;;;;;;;35.10;25.13;;;5.70;99.90;;;;;;5016734;28;20191;-73
2022/03/22 01:43:39;;;;;;;34.60;25.00;;;5.70;99.90;;;;;;5030607;28;20057;-73
2022/03/22 01:46:05;;;;;;;31.55;24.70;;;5.70;99.90;;;;;;5032889;28;20037;-74
2022/03/22 01:48:31;;;;;;;34.05;25.45;;;5.70;99.90;;;;;;5015314;28;20037;-73
2022/03/22 01:50:57;;;;;;;35.75;25.38;;;5.70;99.90;;;;;;5049245;28;20056;-74
2022/03/22 01:53:23;;;;;;;34.13;25.15;;;5.70;99.90;;;;;;5030644;28;20460;-74
2022/03/22 01:55:48;;;;;;;36.58;24.65;;;5.70;99.90;;;;;;5032918;28;20115;-73
2022/03/22 01:58:14;;;;;;;34.25;24.40;;;5.80;99.90;;;;;;5011535;28;20387;-75
2022/03/22 02:00:40;;;;;;;30.42;22.35;;;5.80;99.90;;;;;;5012861;28;20044;-75
2022/03/22 02:05:51;;;;;;;30.05;21.05;;;5.80;99.90;;;;;;5030852;28;20049;-73
2022/03/22 02:08:28;;;;;;;28.67;21.20;;;5.70;99.90;;;;;;5031825;28;20038;-73
2022/03/22 02:10:55;;;;;;;33.67;24.52;;;5.60;99.90;;;;;;5031226;28;20414;-74
2022/03/22 02:13:21;;;;;;;30.38;23.20;;;5.50;99.90;;;;;;5047425;28;20033;-74
2022/03/22 02:15:52;;;;;;;34.38;25.13;;;5.60;99.90;;;;;;5031373;28;20033;-74
2022/03/22 02:18:17;;;;;;;32.28;24.33;;;5.50;99.90;;;;;;5032392;28;20030;-74
2022/03/22 02:20:45;;;;;;;38.13;27.17;;;5.50;99.90;;;;;;5015369;28;20034;-74
2022/03/22 02:23:16;;;;;;;37.55;26.60;;;5.50;99.90;;;;;;5032189;28;20041;-74
2022/03/22 02:25:42;;;;;;;37.60;26.55;;;5.50;99.90;;;;;;5048316;28;20486;-74
2022/03/22 02:28:10;;;;;;;36.28;26.08;;;5.40;99.90;;;;;;5032365;28;20037;-74
2022/03/22 02:30:35;;;;;;;38.15;25.77;;;5.40;99.90;;;;;;5014901;28;20072;-74
2022/03/22 02:33:01;;;;;;;36.47;26.92;;;5.40;99.90;;;;;;5032341;28;20078;-74
2022/03/22 02:35:29;;;;;;;38.83;29.42;;;5.40;99.90;;;;;;5015122;28;20383;-74
2022/03/22 02:37:55;;;;;;;39.33;28.50;;;5.30;99.90;;;;;;5045724;28;20083;-74
2022/03/22 02:40:20;;;;;;;35.05;25.90;;;5.30;99.90;;;;;;5031053;28;20037;-73
2022/03/22 02:42:50;;;;;;;39.38;27.88;;;5.30;99.90;;;;;;5048662;28;20056;-73
2022/03/22 02:45:17;;;;;;;39.10;27.58;;;5.40;99.90;;;;;;5047390;28;20148;-74
2022/03/22 02:47:43;;;;;;;40.13;27.73;;;5.70;99.90;;;;;;5015520;28;20095;-74
2022/03/22 02:50:10;;;;;;;39.65;28.67;;;5.40;99.90;;;;;;5014730;28;20041;-74
2022/03/22 02:52:37;;;;;;;41.10;27.77;;;5.30;99.90;;;;;;5011201;28;20042;-74
2022/03/22 02:55:06;;;;;;;39.22;27.90;;;5.40;99.90;;;;;;5025131;28;20553;-74
2022/03/22 02:57:32;;;;;;;43.25;30.58;;;5.30;99.90;;;;;;5030915;28;20060;-74
2022/03/22 02:59:57;;;;;;;40.05;28.80;;;5.10;99.90;;;;;;5015376;28;20559;-73
2022/03/22 03:02:23;;;;;;;38.47;28.40;;;5.10;99.90;;;;;;5011268;28;20074;-73
2022/03/22 03:04:48;;;;;;;38.42;26.63;;;5.10;99.90;;;;;;5022660;28;20460;-73
2022/03/22 03:07:14;;;;;;;35.75;26.95;;;5.10;99.90;;;;;;5030606;28;20038;-73
2022/03/22 03:09:40;;;;;;;39.10;27.75;;;5.10;99.90;;;;;;5030935;28;20038;-73
2022/03/22 03:12:06;;;;;;;39.60;27.08;;;5.10;99.90;;;;;;5031517;28;20041;-74
2022/03/22 03:14:40;;;;;;;36.90;26.15;;;5.10;99.90;;;;;;5047219;28;20448;-74
2022/03/22 03:17:07;;;;;;;36.78;26.88;;;5.10;99.90;;;;;;5048317;28;20042;-74
2022/03/22 03:19:33;;;;;;;36.75;26.83;;;5.20;99.90;;;;;;5005629;28;20069;-74
2022/03/22 03:21:58;;;;;;;36.63;26.02;;;5.20;99.90;;;;;;5012436;28;20421;-74
2022/03/22 03:24:24;;;;;;;36.05;26.27;;;5.20;99.90;;;;;;5014898;28;20499;-74
2022/03/22 03:26:50;;;;;;;34.78;25.70;;;5.20;99.90;;;;;;5029045;28;20052;-74
2022/03/22 03:29:15;;;;;;;38.38;28.05;;;5.20;99.90;;;;;;5034327;28;20049;-74
2022/03/22 03:31:41;;;;;;;34.15;24.88;;;5.10;99.90;;;;;;5035288;28;20494;-73
2022/03/22 03:34:07;;;;;;;26.15;19.77;;;5.20;99.90;;;;;;5018256;28;20061;-73
2022/03/22 03:36:32;;;;;;;27.48;19.10;;;5.20;99.90;;;;;;5048733;28;20510;-74
2022/03/22 03:38:59;;;;;;;30.15;21.25;;;5.30;99.90;;;;;;5034286;28;20132;-73
2022/03/22 03:47:07;;;;;;;24.35;17.70;;;5.30;99.90;;;;;;5034139;28;20045;-74
2022/03/22 03:49:44;;;;;;;25.70;19.10;;;5.40;99.90;;;;;;5050662;28;20050;-74
2022/03/22 03:52:24;;;;;;;33.97;24.58;;;5.30;99.90;;;;;;5051642;28;20041;-74
2022/03/22 03:54:52;;;;;;;34.25;24.73;;;5.40;99.90;;;;;;5050683;28;20036;-74
2022/03/22 03:57:18;;;;;;;35.83;25.77;;;5.40;99.90;;;;;;5034190;28;20449;-74
2022/03/22 03:59:44;;;;;;;39.15;27.48;;;5.50;99.90;;;;;;5033767;28;20033;-74
2022/03/22 04:02:10;;;;;;;36.97;27.17;;;5.40;99.90;;;;;;5035126;28;20080;-74
2022/03/22 04:04:38;;;;;;;37.67;25.00;;;5.40;99.90;;;;;;5050209;28;20044;-74
2022/03/22 04:07:05;;;;;;;34.13;24.50;;;5.40;99.90;;;;;;5030799;28;20049;-74
2022/03/22 04:09:31;;;;;;;35.13;24.98;;;5.40;99.90;;;;;;5018560;28;20402;-75
2022/03/22 04:11:57;;;;;;;38.42;26.25;;;5.40;99.90;;;;;;5050282;28;20041;-74
2022/03/22 04:14:23;;;;;;;35.50;25.58;;;5.30;99.90;;;;;;5033632;28;20088;-74
2022/03/22 04:16:50;;;;;;;40.28;28.38;;;5.30;99.90;;;;;;5009695;28;20037;-74
2022/03/22 04:19:16;;;;;;;35.20;25.77;;;5.20;99.90;;;;;;5017228;28;20445;-74
2022/03/22 04:21:41;;;;;;;40.88;27.15;;;5.20;99.90;;;;;;5033899;28;20033;-74
2022/03/22 04:24:09;;;;;;;34.35;24.63;;;5.20;99.90;;;;;;5034592;28;20140;-74
2022/03/22 04:26:36;;;;;;;36.45;25.63;;;5.10;99.90;;;;;;5033364;28;20451;-74
2022/03/22 04:34:32;;;;;;;33.22;24.35;;;5.10;99.90;;;;;;5032375;28;20037;-74
2022/03/22 04:37:01;;;;;;;32.55;23.30;;;5.10;99.90;;;;;;5016886;28;20040;-74
2022/03/22 04:39:29;;;;;;;31.35;23.23;;;5.10;99.90;;;;;;5049879;28;20519;-74
2022/03/22 04:41:55;;;;;;;26.10;19.58;;;5.10;99.90;;;;;;5016873;28;20046;-74
2022/03/22 04:44:21;;;;;;;28.42;19.80;;;5.10;99.90;;;;;;5032272;28;20057;-74
2022/03/22 04:46:46;;;;;;;27.70;19.70;;;5.10;99.90;;;;;;5033984;28;20072;-73
2022/03/22 04:49:12;;;;;;;24.77;17.92;;;5.20;99.90;;;;;;5030788;28;20045;-73
2022/03/22 04:57:07;;;;;;;27.10;18.45;;;5.10;99.90;;;;;;5032789;28;20073;-74
2022/03/22 04:59:32;;;;;;;30.13;22.15;;;5.20;99.90;;;;;;5050575;28;20068;-74
2022/03/22 05:01:59;;;;;;;33.20;23.27;;;5.10;99.90;;;;;;5032878;28;20128;-74
2022/03/22 05:04:25;;;;;;;25.33;16.75;;;5.00;99.90;;;;;;5029882;28;20038;-74
2022/03/22 05:06:51;;;;;;;25.73;18.80;;;4.90;99.90;;;;;;5024785;28;20029;-74
2022/03/22 05:09:17;;;;;;;24.73;16.85;;;4.90;99.90;;;;;;5017164;28;20033;-74
2022/03/22 05:11:42;;;;;;;24.27;17.17;;;4.80;99.90;;;;;;5032452;28;20099;-74
2022/03/22 05:14:11;;;;;;;24.27;17.90;;;4.90;99.90;;;;;;5032413;28;20124;-74
2022/03/22 05:16:36;;;;;;;27.15;20.15;;;4.90;99.90;;;;;;5016168;28;20029;-74
2022/03/22 05:19:04;;;;;;;30.92;21.65;;;4.90;99.90;;;;;;5032653;28;20038;-74
2022/03/22 05:21:30;;;;;;;33.05;22.98;;;4.90;99.90;;;;;;5033044;28;20045;-74
2022/03/22 05:23:55;;;;;;;35.35;23.83;;;4.90;99.90;;;;;;5030133;28;20042;-74
2022/03/22 05:26:21;;;;;;;35.03;25.25;;;4.90;99.90;;;;;;5033512;28;20041;-74
2022/03/22 05:28:47;;;;;;;36.33;25.48;;;4.90;99.90;;;;;;5031825;28;20033;-74
2022/03/22 05:31:16;;;;;;;32.35;23.33;;;4.90;99.90;;;;;;5016603;28;20046;-74
2022/03/22 05:33:42;;;;;;;35.08;23.98;;;4.90;99.90;;;;;;5015785;28;20566;-74
2022/03/22 05:36:09;;;;;;;32.67;23.83;;;4.90;99.90;;;;;;5033114;28;20068;-74
2022/03/22 05:38:35;;;;;;;27.65;20.02;;;4.90;99.90;;;;;;5016060;28;20397;-74
2022/03/22 05:41:04;;;;;;;26.52;18.95;;;4.90;99.90;;;;;;5016580;28;20042;-74
2022/03/22 05:43:30;;;;;;;28.13;19.30;;;4.90;99.90;;;;;;5013708;28;20115;-74
2022/03/22 05:45:56;;;;;;;34.22;24.55;;;4.90;99.90;;;;;;5016351;28;20045;-74
2022/03/22 05:48:26;;;;;;;28.02;19.70;;;4.80;99.90;;;;;;5015622;28;20037;-74
2022/03/22 05:50:52;;;;;;;22.85;16.27;;;4.80;99.90;;;;;;5049363;28;20076;-74
2022/03/22 05:53:17;;;;;;;25.63;17.23;;;4.70;99.90;;;;;;5015777;28;20034;-74
2022/03/22 05:55:43;;;;;;;28.60;19.42;;;4.70;99.90;;;;;;5016229;28;20041;-74
2022/03/22 05:58:10;;;;;;;31.08;20.65;;;4.70;99.90;;;;;;5015675;28;20033;-74
2022/03/22 06:00:35;;;;;;;32.95;22.73;;;4.70;99.90;;;;;;5016405;28;20033;-74
2022/03/22 06:03:01;;;;;;;27.42;19.48;;;4.70;99.90;;;;;;5031506;28;20095;-74
2022/03/22 06:05:30;;;;;;;23.70;17.95;;;4.60;99.90;;;;;;5032712;28;20124;-74
2022/03/22 06:07:57;;;;;;;25.63;17.20;;;4.70;99.90;;;;;;5014298;28;20072;-74
2022/03/22 06:10:23;;;;;;;28.00;20.08;;;4.70;99.90;;;;;;5016061;28;20120;-74
2022/03/22 06:12:51;;;;;;;31.23;21.15;;;4.70;99.90;;;;;;5031263;28;20183;-74
2022/03/22 06:15:24;;;;;;;29.80;21.45;;;4.70;99.90;;;;;;5015792;28;20073;-74
2022/03/22 06:17:58;;;;;;;33.63;23.85;;;4.70;99.90;;;;;;5031303;28;20030;-74
2022/03/22 06:20:25;;;;;;;34.05;24.00;;;4.70;99.90;;;;;;5016127;28;20139;-74
2022/03/22 06:22:52;;;;;;;32.72;24.25;;;4.60;99.90;;;;;;5047878;28;20045;-74
2022/03/22 06:25:18;;;;;;;30.30;22.20;;;4.70;99.90;;;;;;5048758;28;20038;-74
2022/03/22 06:27:47;;;;;;;33.75;23.77;;;4.70;99.90;;;;;;5014718;28;20087;-74
2022/03/22 06:30:15;;;;;;;33.67;22.38;;;4.70;99.90;;;;;;5013298;28;20088;-74
2022/03/22 06:32:52;;;;;;;30.60;22.67;;;4.70;99.90;;;;;;5014758;28;20482;-74
2022/03/22 06:35:21;;;;;;;31.77;21.13;;;4.80;99.90;;;;;;5030898;28;20037;-74
2022/03/22 06:37:48;;;;;;;28.25;20.95;;;4.90;99.90;;;;;;5034265;28;20109;-74
2022/03/22 06:40:15;;;;;;;25.23;18.33;;;5.00;99.90;;;;;;5047609;28;20067;-74
2022/03/22 06:42:41;;;;;;;26.10;18.27;;;5.10;99.90;;;;;;5030133;28;20037;-74
2022/03/22 06:45:08;;;;;;;23.50;17.15;;;5.10;99.90;;;;;;5015367;28;20053;-74
2022/03/22 06:47:34;;;;;;;23.33;17.20;;;5.10;99.90;;;;;;5030863;28;20037;-74
2022/03/22 06:50:01;;;;;;;30.20;21.08;;;5.10;99.90;;;;;;5047407;28;20502;-74
2022/03/22 06:52:27;;;;;;;33.03;22.70;;;5.30;99.90;;;;;;5030951;28;20501;-74
2022/03/22 06:54:53;;;;;;;34.55;23.35;;;5.40;99.90;;;;;;5011487;28;20124;-74
2022/03/22 06:57:19;;;;;;;35.58;25.20;;;5.50;99.90;;;;;;5004955;28;20091;-74
2022/03/22 06:59:45;;;;;;;36.53;25.55;;;5.60;99.90;;;;;;5034946;28;20521;-74
2022/03/22 07:02:11;;;;;;;36.97;26.17;;;5.70;99.90;;;;;;5036991;28;20124;-74
2022/03/22 07:04:36;;;;;;;38.88;27.05;;;5.80;99.90;;;;;;5035783;28;20156;-74
2022/03/22 07:07:02;;;;;;;38.78;27.60;;;5.80;99.90;;;;;;5018311;28;20056;-74
2022/03/22 07:09:28;;;;;;;37.15;25.23;;;5.80;99.90;;;;;;5005902;28;20044;-74
2022/03/22 07:11:55;;;;;;;36.17;25.73;;;5.90;99.90;;;;;;5034845;28;20448;-74
2022/03/22 07:14:23;;;;;;;36.92;25.55;;;6.20;99.90;;;;;;5036818;28;20204;-74
2022/03/22 07:16:49;;;;;;;40.25;26.77;;;6.40;99.90;;;;;;5018567;28;20079;-74
2022/03/22 07:19:16;;;;;;;36.70;26.58;;;6.50;99.90;;;;;;5037904;28;20041;-74
2022/03/22 07:21:42;;;;;;;41.55;27.60;;;6.60;99.90;;;;;;5021303;28;20441;-74
2022/03/22 07:24:10;;;;;;;40.47;27.02;;;6.70;99.90;;;;;;5054716;28;20402;-74
2022/03/22 07:26:36;;;;;;;38.88;26.83;;;6.80;99.90;;;;;;5036929;28;20497;-74
2022/03/22 07:29:01;;;;;;;36.90;25.85;;;6.90;99.90;;;;;;5039188;28;20045;-74
2022/03/22 07:31:27;;;;;;;39.10;27.48;;;7.00;99.90;;;;;;5020022;28;20041;-74
2022/03/22 07:33:53;;;;;;;40.65;26.40;;;7.10;99.90;;;;;;5038012;28;20128;-74
2022/03/22 07:36:18;;;;;;;36.42;26.98;;;7.20;99.90;;;;;;5033768;28;20508;-74
2022/03/22 07:38:44;;;;;;;38.22;26.83;;;7.20;99.90;;;;;;5025647;28;20034;-74
2022/03/22 07:41:12;;;;;;;36.47;24.38;;;7.30;99.90;;;;;;5018708;28;20118;-74
2022/03/22 07:43:38;;;;;;;38.25;25.30;;;7.40;99.90;;;;;;5018539;28;20069;-74
2022/03/22 07:46:04;;;;;;;37.28;24.55;;;7.70;99.90;;;;;;5035912;28;20521;-74
2022/03/22 07:48:30;;;;;;;36.28;23.83;;;7.80;99.90;;;;;;5032962;28;20062;-74
2022/03/22 07:53:42;;;;;;;39.20;25.77;;;8.10;99.90;;;;;;5045288;28;20398;-74
2022/03/22 07:56:08;;;;;;;33.67;23.13;;;8.10;99.90;;;;;;5052821;28;20052;-74
2022/03/22 07:58:33;;;;;;;35.88;25.30;;;8.30;99.90;;;;;;5017088;28;20033;-74
2022/03/22 08:00:59;;;;;;;35.08;22.38;;;8.50;99.90;;;;;;5033816;28;20045;-74
2022/03/22 08:03:26;;;;;;;35.53;23.92;;;8.60;99.90;;;;;;5018256;28;20092;-75
2022/03/22 08:05:52;;;;;;;36.95;23.77;;;8.80;99.90;;;;;;5033997;28;20079;-75
2022/03/22 08:08:18;;;;;;;36.10;24.98;;;9.00;99.90;;;;;;5035540;28;20069;-75
2022/03/22 08:10:45;;;;;;;41.33;24.00;;;9.10;99.90;;;;;;5013380;28;20045;-75
2022/03/22 08:13:11;;;;;;;31.88;21.13;;;9.30;99.90;;;;;;5014921;28;20048;-74
2022/03/22 08:15:38;;;;;;;32.85;23.10;;;9.50;99.90;;;;;;5027078;28;20398;-75
2022/03/22 08:18:04;;;;;;;37.33;25.13;;;9.70;99.90;;;;;;5016109;28;20033;-75
2022/03/22 08:20:30;;;;;;;37.42;25.23;;;9.70;99.90;;;;;;5032377;28;20037;-74
2022/03/22 08:22:59;;;;;;;37.78;23.70;;;9.70;99.90;;;;;;5017746;28;20451;-75
2022/03/22 08:25:39;;;;;;;35.92;24.48;;;9.80;99.90;;;;;;5013999;28;20049;-74
2022/03/22 08:28:07;;;;;;;32.72;22.90;;;9.90;99.90;;;;;;5020050;28;20043;-75
2022/03/22 08:30:34;;;;;;;33.90;23.70;;;10.10;99.90;;;;;;5018253;28;20044;-75
2022/03/22 08:33:03;;;;;;;32.30;23.65;;;10.30;99.90;;;;;;5003769;28;20120;-74
2022/03/22 08:35:29;;;;;;;38.53;24.55;;;10.40;99.90;;;;;;5002638;28;20072;-75
2022/03/22 08:37:56;;;;;;;33.35;22.05;;;10.60;99.90;;;;;;5026738;28;20057;-75
2022/03/22 08:40:22;;;;;;;34.35;22.52;;;10.70;99.90;;;;;;5019005;28;20038;-74
2022/03/22 08:42:49;;;;;;;32.30;21.55;;;10.80;99.90;;;;;;5032347;28;20167;-74
2022/03/22 08:45:16;;;;;;;30.75;22.33;;;10.80;99.90;;;;;;5015669;28;20064;-76
2022/03/22 08:47:45;;;;;;;32.55;22.00;;;10.90;99.90;;;;;;5032773;28;20038;-75
2022/03/22 08:50:13;;;;;;;31.70;22.42;;;11.00;99.90;;;;;;5049617;28;20037;-75
2022/03/22 08:52:40;;;;;;;34.58;22.17;;;11.20;99.90;;;;;;5015797;28;20041;-75
2022/03/22 08:55:08;;;;;;;30.92;21.08;;;11.40;99.60;;;;;;5033920;28;20041;-75
2022/03/22 08:57:37;;;;;;;27.83;18.80;;;11.50;99.20;;;;;;5014490;28;20486;-75
2022/03/22 09:00:09;;;;;;;32.10;20.55;;;11.60;99.00;;;;;;5032724;28;20091;-75
2022/03/22 09:02:38;;;;;;;33.22;21.55;;;11.70;98.30;;;;;;5015703;28;20513;-75
2022/03/22 09:07:51;;;;;;;29.83;19.75;;;11.90;97.10;;;;;;5029360;28;20046;-75
2022/03/22 09:10:19;;;;;;;30.50;22.02;;;12.10;96.70;;;;;;5032482;28;20041;-75
2022/03/22 09:12:44;;;;;;;31.25;21.05;;;12.10;97.70;;;;;;5033161;28;20033;-75
2022/03/22 09:15:11;;;;;;;28.83;20.83;;;12.20;97.60;;;;;;5020788;28;20537;-75
2022/03/22 09:17:37;;;;;;;30.45;20.77;;;12.40;96.40;;;;;;5029724;28;20038;-76
2022/03/22 09:20:04;;;;;;;33.08;22.48;;;12.40;97.20;;;;;;5009362;28;20038;-75
2022/03/22 09:22:29;;;;;;;31.05;21.92;;;12.60;95.60;;;;;;5012913;28;20069;-75
2022/03/22 09:24:56;;;;;;;30.80;21.30;;;12.70;95.70;;;;;;5026692;28;20497;-75
2022/03/22 09:27:23;;;;;;;34.38;20.80;;;12.80;95.70;;;;;;5048579;28;20108;-75
2022/03/22 09:29:49;;;;;;;29.60;20.63;;;13.00;93.10;;;;;;5030795;28;20458;-75
2022/03/22 09:32:14;;;;;;;31.63;21.42;;;13.10;94.20;;;;;;5011318;28;20121;-75
2022/03/22 09:34:40;;;;;;;30.90;21.40;;;13.10;94.70;;;;;;5010250;28;20076;-75
2022/03/22 09:37:07;;;;;;;33.92;22.65;;;13.20;94.40;;;;;;5031489;28;20033;-75
2022/03/22 09:39:33;;;;;;;31.20;20.17;;;13.30;95.10;;;;;;5000522;28;20030;-75
2022/03/22 09:42:02;;;;;;;29.85;21.40;;;13.40;94.60;;;;;;5030909;28;20379;-75
2022/03/22 09:44:29;;;;;;;29.10;20.42;;;13.50;95.80;;;;;;5014984;28;20103;-75
2022/03/22 09:46:56;;;;;;;30.15;20.25;;;13.70;94.10;;;;;;5032839;28;20060;-75
2022/03/22 09:49:22;;;;;;;27.98;19.17;;;13.80;92.90;;;;;;5031171;28;20069;-75
2022/03/22 09:51:48;;;;;;;29.63;20.63;;;13.90;92.60;;;;;;5011291;28;20038;-75
2022/03/22 09:54:22;;;;;;;28.73;20.35;;;14.00;92.80;;;;;;5032502;28;20045;-75
2022/03/22 09:56:48;;;;;;;33.90;20.80;;;14.10;92.30;;;;;;5032257;28;20038;-75
2022/03/22 09:59:20;;;;;;;31.13;20.67;;;14.20;91.10;;;;;;5025934;28;20483;-75
2022/03/22 10:01:46;;;;;;;28.27;18.23;;;14.30;88.90;;;;;;5012744;28;20045;-75
2022/03/22 10:04:14;;;;;;;26.35;19.17;;;14.20;90.00;;;;;;5015959;28;20564;-75
2022/03/22 10:06:54;;;;;;;31.02;19.42;;;14.30;90.40;;;;;;5047648;28;20041;-75
2022/03/22 10:09:39;;;;;;;28.27;18.38;;;14.40;92.00;;;;;;5030682;28;20099;-75
2022/03/22 10:12:07;;;;;;;27.98;17.02;;;14.50;83.90;;;;;;5011379;28;20049;-76
2022/03/22 10:14:41;;;;;;;28.75;18.80;;;14.70;83.40;;;;;;5022134;28;20421;-75
2022/03/22 10:17:20;;;;;;;29.80;18.83;;;14.80;81.60;;;;;;5032683;28;20037;-75
2022/03/22 10:19:50;;;;;;;30.60;19.10;;;14.80;84.50;;;;;;5011451;28;20045;-75
2022/03/22 10:22:23;;;;;;;27.90;17.77;;;14.90;88.50;;;;;;5041060;28;20434;-76
2022/03/22 10:24:51;;;;;;;27.13;18.75;;;15.00;83.10;;;;;;5025944;28;20049;-75
2022/03/22 10:27:26;;;;;;;29.35;19.80;;;15.00;83.10;;;;;;5031697;28;20072;-75
2022/03/22 10:29:56;;;;;;;28.17;19.50;;;15.00;72.80;;;;;;5032194;28;20046;-75
2022/03/22 10:32:33;;;;;;;27.67;18.15;;;15.00;81.30;;;;;;5030023;28;20037;-75
2022/03/22 10:35:11;;;;;;;29.15;19.42;;;15.20;79.70;;;;;;5010622;28;20038;-75
2022/03/22 10:37:38;;;;;;;29.52;19.42;;;15.40;74.50;;;;;;5031028;28;20060;-75
2022/03/22 10:40:20;;;;;;;31.45;19.90;;;15.40;77.90;;;;;;5003305;28;20041;-75
2022/03/22 10:42:46;;;;;;;30.70;20.42;;;15.30;79.20;;;;;;5030648;28;20037;-76
2022/03/22 10:45:12;;;;;;;29.80;18.73;;;15.40;80.70;;;;;;5048577;28;20076;-75
2022/03/22 10:47:38;;;;;;;26.27;18.80;;;15.40;75.50;;;;;;5030330;28;20494;-75
2022/03/22 10:50:07;;;;;;;28.83;19.25;;;15.50;83.50;;;;;;5031367;28;20045;-75
2022/03/22 10:52:33;;;;;;;26.55;17.65;;;15.60;75.10;;;;;;5016811;28;20755;-75
2022/03/22 10:55:01;;;;;;;28.75;19.40;;;15.60;80.40;;;;;;5030502;28;20044;-74
2022/03/22 10:57:32;;;;;;;31.65;19.63;;;15.90;75.90;;;;;;5026961;28;20042;-76
2022/03/22 11:00:04;;;;;;;28.13;19.48;;;15.90;74.20;;;;;;5033324;28;20112;-77
2022/03/22 11:02:34;;;;;;;27.85;19.23;;;15.90;75.90;;;;;;5021077;28;20046;-76
2022/03/22 11:05:04;;;;;;;28.77;19.00;;;15.90;75.80;;;;;;5026418;28;20068;-75
2022/03/22 11:07:39;;;;;;;29.27;19.55;;;15.90;77.60;;;;;;5030224;28;20045;-75
2022/03/22 11:10:05;;;;;;;27.95;19.48;;;16.00;74.90;;;;;;5047895;28;20049;-75
2022/03/22 11:12:32;;;;;;;28.38;19.30;;;16.00;75.00;;;;;;5014341;28;20067;-76
2022/03/22 11:15:00;;;;;;;29.00;20.02;;;16.10;76.10;;;;;;5047252;28;20088;-75
2022/03/22 11:17:28;;;;;;;32.30;19.65;;;16.10;76.00;;;;;;5029165;28;20069;-75
2022/03/22 11:19:59;;;;;;;31.38;19.95;;;16.40;73.00;;;;;;5015176;28;20052;-75
2022/03/22 11:22:25;;;;;;;30.13;19.90;;;16.50;72.90;;;;;;5011626;28;20046;-75
2022/03/22 11:24:52;;;;;;;29.67;20.75;;;16.50;67.20;;;;;;4998127;28;20053;-74
2022/03/22 11:27:29;;;;;;;26.02;17.45;;;16.60;71.30;;;;;;5013666;28;20079;-74
2022/03/22 11:29:55;;;;;;;26.88;17.27;;;16.70;69.40;;;;;;5011815;28;20046;-74
2022/03/22 11:35:13;;;;;;;28.38;18.88;;;16.90;68.20;;;;;;5025060;28;20046;-74
2022/03/22 11:37:40;;;;;;;27.73;18.45;;;17.00;68.20;;;;;;5015450;28;20033;-74
2022/03/22 11:43:10;;;;;;;24.85;17.75;;;17.00;67.60;;;;;;5030726;28;20045;-74
2022/03/22 11:45:47;;;;;;;27.27;17.42;;;16.90;68.50;;;;;;5029990;28;20046;-74
2022/03/22 11:48:12;;;;;;;30.60;20.63;;;17.00;68.40;;;;;;5016435;28;20045;-74
2022/03/22 11:50:41;;;;;;;28.52;19.20;;;17.10;65.70;;;;;;5017939;28;20120;-74
2022/03/22 11:53:16;;;;;;;32.45;20.27;;;17.20;64.50;;;;;;5046293;28;20084;-74
2022/03/22 11:55:42;;;;;;;30.02;21.20;;;17.10;65.60;;;;;;5036501;28;20509;-74
2022/03/22 11:58:09;;;;;;;30.27;20.70;;;17.10;67.40;;;;;;5034328;28;20047;-75
2022/03/22 12:00:56;;;;;;;30.23;20.25;;;17.10;66.90;;;;;;5034104;28;20120;-74
2022/03/22 12:03:25;;;;;;;28.75;19.20;;;17.10;68.00;;;;;;5034769;28;20052;-74
2022/03/22 12:05:53;;;;;;;29.80;19.95;;;17.30;67.90;;;;;;5050172;28;20045;-74
2022/03/22 12:08:19;;;;;;;28.50;19.02;;;17.30;67.70;;;;;;5050588;28;20053;-74
2022/03/22 12:10:49;;;;;;;25.15;17.88;;;17.30;65.20;;;;;;5033514;28;20041;-74
2022/03/22 12:13:15;;;;;;;28.50;19.83;;;17.30;66.60;;;;;;5013169;28;20129;-74
2022/03/22 12:15:41;;;;;;;27.00;19.02;;;17.30;66.00;;;;;;5043272;28;20044;-75
2022/03/22 12:18:09;;;;;;;27.95;19.63;;;17.30;66.60;;;;;;5033703;28;20041;-74
2022/03/22 12:20:35;;;;;;;28.33;18.85;;;17.40;65.00;;;;;;5033460;28;20064;-74
2022/03/22 12:23:00;;;;;;;29.25;20.55;;;17.40;63.50;;;;;;5031031;28;20437;-74
2022/03/22 12:25:44;;;;;;;32.30;19.90;;;17.50;61.90;;;;;;5030195;28;20049;-74
2022/03/22 12:28:10;;;;;;;28.45;19.13;;;17.60;62.40;;;;;;5014177;28;20088;-74
2022/03/22 12:30:38;;;;;;;30.25;19.55;;;17.70;63.60;;;;;;5015889;28;20037;-74
2022/03/22 12:33:13;;;;;;;29.77;19.75;;;17.80;61.90;;;;;;5030338;28;20038;-75
2022/03/22 12:35:40;;;;;;;28.77;18.75;;;17.80;60.60;;;;;;5033975;28;20116;-74
2022/03/22 12:38:06;;;;;;;28.45;18.10;;;17.70;61.80;;;;;;5046574;28;20115;-74
2022/03/22 12:40:33;;;;;;;28.58;17.75;;;17.70;62.90;;;;;;5050031;28;20084;-70
2022/03/22 12:42:59;;;;;;;29.73;19.35;;;17.70;63.50;;;;;;5049187;28;20060;-75
2022/03/22 12:45:27;;;;;;;27.38;17.67;;;17.80;63.60;;;;;;5033549;28;20108;-75
2022/03/22 12:47:56;;;;;;;30.20;18.13;;;17.90;62.30;;;;;;5033170;28;20445;-75
2022/03/22 12:50:22;;;;;;;31.67;19.55;;;17.90;62.40;;;;;;5019203;28;20124;-71
2022/03/22 12:52:48;;;;;;;33.58;18.63;;;17.90;59.50;;;;;;5036376;28;20044;-72
2022/03/22 12:55:16;;;;;;;28.08;17.00;;;17.90;62.30;;;;;;5026087;28;20034;-72
2022/03/22 12:57:46;;;;;;;32.63;19.80;;;18.10;59.70;;;;;;5031309;28;20049;-72
2022/03/22 13:00:27;;;;;;;28.92;16.90;;;18.10;59.90;;;;;;5016724;28;20498;-72
2022/03/22 13:02:54;;;;;;;28.80;17.15;;;18.30;57.00;;;;;;5032758;28;20045;-73
2022/03/22 13:05:27;;;;;;;30.80;19.42;;;18.20;56.20;;;;;;5030508;28;20068;-71
2022/03/22 13:07:53;;;;;;;30.85;18.88;;;18.00;58.10;;;;;;5032250;28;20041;-72